Antarctic — D5BM7 — position and weather

sailwx.info

Track history (hours):
 
Tides and Currents Weather Stations Pressure Air Temp Water Temp Dewpoint Dewpoint Depression Visibility Wind Speed Wind Dir Waves Ship Positions

Antarctic

Last reported at 2018-Jan-09 14:15 UTC. Time now 2018-Jan-23 20:17 UTC.
Position N 36°02' W 005°04'.
Warning: this ship's position is 14 days out of date.

Length 274 m; draft 13.1 m.

Type: Tanker. MMSI: 636015560.

Date/timePositionNaut miles runAvg speedWind from/ knotsBaromVisibWave heightAir tempDewpointWater temp
2018-Jan-09 14:15N 36°02' W 005°04'413.1
2018-Jan-09 13:59N 36°01' W 005°09'613.3
2018-Jan-09 13:31N 36°00' W 005°16'815.6
2018-Jan-09 13:01N 35°58' W 005°25'815.6
2018-Jan-09 12:31N 35°55' W 005°35'815.3
2018-Jan-09 12:01N 35°55' W 005°44'714.8
2018-Jan-09 11:30N 35°54' W 005°53'714.2
2018-Jan-09 10:59N 35°54' W 006°02'813.8
2018-Jan-09 10:22N 35°54' W 006°13'22411.1
2018-Jan-08 14:07N 38°05' W 010°02'412.5
2018-Jan-08 13:50N 38°08' W 010°02'812.6
2018-Jan-08 13:14N 38°16' W 010°04'312.8
2018-Jan-08 13:00N 38°19' W 010°05'612.9
2018-Jan-08 12:30N 38°25' W 010°07'612.8
2018-Jan-08 12:00N 38°31' W 010°08'612.7
2018-Jan-08 11:30N 38°37' W 010°10'612.4
2018-Jan-08 11:00N 38°43' W 010°11'612.2
2018-Jan-08 10:30N 38°49' W 010°12'612.3
2018-Jan-08 10:00N 38°56' W 010°11'612.7
2018-Jan-08 09:30N 39°02' W 010°12'612.6
2018-Jan-08 08:59N 39°08' W 010°11'612.4
2018-Jan-08 08:30N 39°14' W 010°12'612.6
2018-Jan-08 08:00N 39°21' W 010°12'  
2018-Jan-05 19:47N 49°40' W 003°50'8 8.2
2018-Jan-05 18:45N 49°44' W 003°39'2 8.3
2018-Jan-05 18:30N 49°45' W 003°36'5 9.1
2018-Jan-05 17:56N 49°47' W 003°29'4 9.8
2018-Jan-05 17:30N 49°49' W 003°23'510.2
2018-Jan-05 17:00N 49°51' W 003°16'611.6
2018-Jan-05 16:30N 49°55' W 003°09'612.5
2018-Jan-05 16:00N 49°58' W 003°01'713.1
2018-Jan-05 15:30N 50°00' W 002°51'713.5
2018-Jan-05 15:00N 50°02' W 002°41'812.8
2018-Jan-05 14:24N 50°04' W 002°29'58 8.1
2018-Jan-05 07:13N 50°19' W 001°02'311.6
2018-Jan-05 07:00N 50°20' W 000°58'612.3
2018-Jan-05 06:30N 50°22' W 000°49'713.1
2018-Jan-05 05:57N 50°23' W 000°38'813.5
2018-Jan-05 05:22N 50°25' W 000°26'513.1
2018-Jan-05 05:00N 50°26' W 000°19'612.9
2018-Jan-05 04:30N 50°28' W 000°09'612.6
2018-Jan-05 04:00N 50°30' E 000°01'612.2
2018-Jan-05 03:30N 50°32' E 000°10'611.5
2018-Jan-05 03:00N 50°34' E 000°18'611.1
2018-Jan-05 02:30N 50°35' E 000°27'510.4
2018-Jan-05 02:00N 50°37' E 000°35'5 9.9
2018-Jan-05 01:30N 50°40' E 000°41'5 9.7
2018-Jan-05 01:00N 50°42' E 000°47'5 9.8
2018-Jan-05 00:30N 50°45' E 000°53'5 9.1
2018-Jan-05 00:00N 50°48' E 000°59'5 9.8
2018-Jan-04 23:30N 50°51' E 001°05'611.1
2018-Jan-04 22:58N 50°55' E 001°12'611.9
2018-Jan-04 22:30N 50°59' E 001°19'613.1
2018-Jan-04 22:00N 51°04' E 001°26'714.3
2018-Jan-04 21:30N 51°08' E 001°35'713.9
2018-Jan-04 21:00N 51°12' E 001°44'713.4
2018-Jan-04 20:30N 51°18' E 001°49'612.8
2018-Jan-04 20:01N 51°23' E 001°54'611.6
2018-Jan-04 19:31N 51°28' E 001°59'510.8
2018-Jan-04 19:00N 51°32' E 002°05'510.4
2018-Jan-04 18:30N 51°36' E 002°10'5 9.7
2018-Jan-04 18:00N 51°40' E 002°16'5 9.3
2018-Jan-04 17:30N 51°44' E 002°21'45910.7
2018-Jan-02 22:24N 57°49' E 010°23'511.8
2018-Jan-02 22:00N 57°49' E 010°31'510.6
2018-Jan-02 21:30N 57°50' E 010°41'4 9.0
2018-Jan-02 21:00N 57°46' E 010°46'2 4.5
2018-Jan-02 20:30N 57°44' E 010°47'3 6.6
2018-Jan-02 20:00N 57°44' E 010°53'510.5
2018-Jan-02 19:30N 57°41' E 011°01'612.1
2018-Jan-02 19:00N 57°36' E 011°09'612.2
2018-Jan-02 18:30N 57°32' E 011°17'612.4
2018-Jan-02 18:00N 57°28' E 011°26'713.2
2018-Jan-02 17:30N 57°22' E 011°29'613.0
2018-Jan-02 17:00N 57°16' E 011°34'713.0
2018-Jan-02 16:30N 57°09' E 011°38'612.9
2018-Jan-02 16:00N 57°03' E 011°42'713.2
2018-Jan-02 15:30N 56°57' E 011°46'713.6
2018-Jan-02 15:00N 56°51' E 011°50'9611.8
2018-Jan-02 06:51N 55°18' E 011°03'412.7
2018-Jan-02 06:30N 55°14' E 011°06'611.4
2018-Jan-02 06:00N 55°10' E 011°00'713.0
2018-Jan-02 05:30N 55°03' E 011°00'1212.2
2018-Jan-02 04:30N 54°52' E 010°50'612.4
2018-Jan-02 04:00N 54°46' E 010°48'611.9
2018-Jan-02 03:30N 54°40' E 010°49'713.4
2018-Jan-02 03:00N 54°37' E 010°59'713.4
2018-Jan-02 02:30N 54°36' E 011°10'612.7
2018-Jan-02 02:00N 54°33' E 011°20'713.2
2018-Jan-02 01:30N 54°30' E 011°30'713.6
2018-Jan-02 01:00N 54°27' E 011°41'713.1
2018-Jan-02 00:30N 54°27' E 011°52'713.1
2018-Jan-02 00:00N 54°27' E 012°04'510.7
2018-Jan-01 23:30N 54°29' E 012°12'611.4
2018-Jan-01 23:00N 54°34' E 012°16'3510.9
2018-Jan-01 19:45N 54°53' E 013°08'2711.7
2018-Jan-01 17:28N 55°01' E 013°52'2710.9
2018-Jan-01 15:00N 55°20' E 014°26'510.9
2018-Jan-01 14:30N 55°24' E 014°33'510.4
2018-Jan-01 14:00N 55°27' E 014°40'510.7
2018-Jan-01 13:30N 55°30' E 014°48'510.6
2018-Jan-01 13:00N 55°32' E 014°56'1111.3
2018-Jan-01 12:00N 55°37' E 015°14'611.7
2018-Jan-01 11:30N 55°39' E 015°24'611.7
2018-Jan-01 11:00N 55°40' E 015°34'611.9
2018-Jan-01 10:30N 55°42' E 015°44'612.0
2018-Jan-01 10:01N 55°43' E 015°55'612.1
2018-Jan-01 09:30N 55°45' E 016°05'1212.1
2018-Jan-01 08:30N 55°48' E 016°26'612.0
2018-Jan-01 08:00N 55°49' E 016°36'611.9
2018-Jan-01 07:30N 55°51' E 016°47'  
Track history (hours):
 
Tides and Currents Weather Stations Pressure Air Temp Water Temp Dewpoint Dewpoint Depression Visibility Wind Speed Wind Dir Waves Ship Positions

Antarctic

Last reported at 2018-Jan-09 14:15 UTC. Time now 2018-Jan-23 20:17 UTC.
Position N 36°02' W 005°04'.
Warning: this ship's position is 14 days out of date.

Length 274 m; draft 13.1 m.

Type: Tanker. MMSI: 636015560.

Date/timePositionNaut miles runAvg speedWind from/ knotsBaromVisibWave heightAir tempDewpointWater temp
2018-Jan-09 14:15N 36°02' W 005°04'413.1
2018-Jan-09 13:59N 36°01' W 005°09'613.3
2018-Jan-09 13:31N 36°00' W 005°16'815.6
2018-Jan-09 13:01N 35°58' W 005°25'815.6
2018-Jan-09 12:31N 35°55' W 005°35'815.3
2018-Jan-09 12:01N 35°55' W 005°44'714.8
2018-Jan-09 11:30N 35°54' W 005°53'714.2
2018-Jan-09 10:59N 35°54' W 006°02'813.8
2018-Jan-09 10:22N 35°54' W 006°13'22411.1
2018-Jan-08 14:07N 38°05' W 010°02'412.5
2018-Jan-08 13:50N 38°08' W 010°02'812.6
2018-Jan-08 13:14N 38°16' W 010°04'312.8
2018-Jan-08 13:00N 38°19' W 010°05'612.9
2018-Jan-08 12:30N 38°25' W 010°07'612.8
2018-Jan-08 12:00N 38°31' W 010°08'612.7
2018-Jan-08 11:30N 38°37' W 010°10'612.4
2018-Jan-08 11:00N 38°43' W 010°11'612.2
2018-Jan-08 10:30N 38°49' W 010°12'612.3
2018-Jan-08 10:00N 38°56' W 010°11'612.7
2018-Jan-08 09:30N 39°02' W 010°12'612.6
2018-Jan-08 08:59N 39°08' W 010°11'612.4
2018-Jan-08 08:30N 39°14' W 010°12'612.6
2018-Jan-08 08:00N 39°21' W 010°12'  
2018-Jan-05 19:47N 49°40' W 003°50'8 8.2
2018-Jan-05 18:45N 49°44' W 003°39'2 8.3
2018-Jan-05 18:30N 49°45' W 003°36'5 9.1
2018-Jan-05 17:56N 49°47' W 003°29'4 9.8
2018-Jan-05 17:30N 49°49' W 003°23'510.2
2018-Jan-05 17:00N 49°51' W 003°16'611.6
2018-Jan-05 16:30N 49°55' W 003°09'612.5
2018-Jan-05 16:00N 49°58' W 003°01'713.1
2018-Jan-05 15:30N 50°00' W 002°51'713.5
2018-Jan-05 15:00N 50°02' W 002°41'812.8
2018-Jan-05 14:24N 50°04' W 002°29'58 8.1
2018-Jan-05 07:13N 50°19' W 001°02'311.6
2018-Jan-05 07:00N 50°20' W 000°58'612.3
2018-Jan-05 06:30N 50°22' W 000°49'713.1
2018-Jan-05 05:57N 50°23' W 000°38'813.5
2018-Jan-05 05:22N 50°25' W 000°26'513.1
2018-Jan-05 05:00N 50°26' W 000°19'612.9
2018-Jan-05 04:30N 50°28' W 000°09'612.6
2018-Jan-05 04:00N 50°30' E 000°01'612.2
2018-Jan-05 03:30N 50°32' E 000°10'611.5
2018-Jan-05 03:00N 50°34' E 000°18'611.1
2018-Jan-05 02:30N 50°35' E 000°27'510.4
2018-Jan-05 02:00N 50°37' E 000°35'5 9.9
2018-Jan-05 01:30N 50°40' E 000°41'5 9.7
2018-Jan-05 01:00N 50°42' E 000°47'5 9.8
2018-Jan-05 00:30N 50°45' E 000°53'5 9.1
2018-Jan-05 00:00N 50°48' E 000°59'5 9.8
2018-Jan-04 23:30N 50°51' E 001°05'611.1
2018-Jan-04 22:58N 50°55' E 001°12'611.9
2018-Jan-04 22:30N 50°59' E 001°19'613.1
2018-Jan-04 22:00N 51°04' E 001°26'714.3
2018-Jan-04 21:30N 51°08' E 001°35'713.9
2018-Jan-04 21:00N 51°12' E 001°44'713.4
2018-Jan-04 20:30N 51°18' E 001°49'612.8
2018-Jan-04 20:01N 51°23' E 001°54'611.6
2018-Jan-04 19:31N 51°28' E 001°59'510.8
2018-Jan-04 19:00N 51°32' E 002°05'510.4
2018-Jan-04 18:30N 51°36' E 002°10'5 9.7
2018-Jan-04 18:00N 51°40' E 002°16'5 9.3
2018-Jan-04 17:30N 51°44' E 002°21'45910.7
2018-Jan-02 22:24N 57°49' E 010°23'511.8
2018-Jan-02 22:00N 57°49' E 010°31'510.6
2018-Jan-02 21:30N 57°50' E 010°41'4 9.0
2018-Jan-02 21:00N 57°46' E 010°46'2 4.5
2018-Jan-02 20:30N 57°44' E 010°47'3 6.6
2018-Jan-02 20:00N 57°44' E 010°53'510.5
2018-Jan-02 19:30N 57°41' E 011°01'612.1
2018-Jan-02 19:00N 57°36' E 011°09'612.2
2018-Jan-02 18:30N 57°32' E 011°17'612.4
2018-Jan-02 18:00N 57°28' E 011°26'713.2
2018-Jan-02 17:30N 57°22' E 011°29'613.0
2018-Jan-02 17:00N 57°16' E 011°34'713.0
2018-Jan-02 16:30N 57°09' E 011°38'612.9
2018-Jan-02 16:00N 57°03' E 011°42'713.2
2018-Jan-02 15:30N 56°57' E 011°46'713.6
2018-Jan-02 15:00N 56°51' E 011°50'9611.8
2018-Jan-02 06:51N 55°18' E 011°03'412.7
2018-Jan-02 06:30N 55°14' E 011°06'611.4
2018-Jan-02 06:00N 55°10' E 011°00'713.0
2018-Jan-02 05:30N 55°03' E 011°00'1212.2
2018-Jan-02 04:30N 54°52' E 010°50'612.4
2018-Jan-02 04:00N 54°46' E 010°48'611.9
2018-Jan-02 03:30N 54°40' E 010°49'713.4
2018-Jan-02 03:00N 54°37' E 010°59'713.4
2018-Jan-02 02:30N 54°36' E 011°10'612.7
2018-Jan-02 02:00N 54°33' E 011°20'713.2
2018-Jan-02 01:30N 54°30' E 011°30'713.6
2018-Jan-02 01:00N 54°27' E 011°41'713.1
2018-Jan-02 00:30N 54°27' E 011°52'713.1
2018-Jan-02 00:00N 54°27' E 012°04'510.7
2018-Jan-01 23:30N 54°29' E 012°12'611.4
2018-Jan-01 23:00N 54°34' E 012°16'3510.9
2018-Jan-01 19:45N 54°53' E 013°08'2711.7
2018-Jan-01 17:28N 55°01' E 013°52'2710.9
2018-Jan-01 15:00N 55°20' E 014°26'510.9
2018-Jan-01 14:30N 55°24' E 014°33'510.4
2018-Jan-01 14:00N 55°27' E 014°40'510.7
2018-Jan-01 13:30N 55°30' E 014°48'510.6
2018-Jan-01 13:00N 55°32' E 014°56'1111.3
2018-Jan-01 12:00N 55°37' E 015°14'611.7
2018-Jan-01 11:30N 55°39' E 015°24'611.7
2018-Jan-01 11:00N 55°40' E 015°34'611.9
2018-Jan-01 10:30N 55°42' E 015°44'612.0
2018-Jan-01 10:01N 55°43' E 015°55'612.1
2018-Jan-01 09:30N 55°45' E 016°05'1212.1
2018-Jan-01 08:30N 55°48' E 016°26'612.0
2018-Jan-01 08:00N 55°49' E 016°36'611.9
2018-Jan-01 07:30N 55°51' E 016°47'  

Dump ship's entire track history